createdAt,value
2018-06-10T00:00:06.322Z,46.40
2018-06-10T00:00:38.339Z,46.50
2018-06-10T00:01:10.386Z,46.40
2018-06-10T00:01:42.398Z,46.50
2018-06-10T00:02:14.411Z,46.60
2018-06-10T00:02:46.438Z,46.70
2018-06-10T00:03:18.480Z,46.70
2018-06-10T00:03:50.494Z,46.70
2018-06-10T00:04:22.541Z,46.70
2018-06-10T00:04:54.558Z,46.80
2018-06-10T00:05:26.610Z,46.70
2018-06-10T00:05:58.614Z,46.70
2018-06-10T00:06:30.632Z,46.80
2018-06-10T00:07:02.646Z,46.80
2018-06-10T00:07:34.681Z,47.40
2018-06-10T00:08:06.721Z,46.70
2018-06-10T00:08:38.742Z,46.70
2018-06-10T00:09:10.773Z,46.90
2018-06-10T00:09:42.794Z,46.80
2018-06-10T00:10:14.815Z,47.00
2018-06-10T00:10:46.825Z,47.00
2018-06-10T00:11:18.830Z,47.10
2018-06-10T00:11:50.891Z,47.20
2018-06-10T00:12:22.918Z,47.30
2018-06-10T00:12:54.931Z,47.30
2018-06-10T00:13:26.971Z,47.40
2018-06-10T00:13:58.988Z,47.60
2018-06-10T00:14:31.007Z,47.70
2018-06-10T00:15:03.020Z,47.70
2018-06-10T00:15:35.036Z,47.80
2018-06-10T00:16:07.070Z,47.90
2018-06-10T00:16:39.123Z,48.00
2018-06-10T00:17:11.125Z,48.00
2018-06-10T00:17:43.181Z,48.00
2018-06-10T00:18:15.220Z,48.10
2018-06-10T00:18:47.239Z,48.10
2018-06-10T00:19:19.254Z,48.20
2018-06-10T00:19:51.283Z,48.20
2018-06-10T00:20:23.299Z,48.10
2018-06-10T00:20:55.319Z,48.20
2018-06-10T00:21:27.329Z,48.20
2018-06-10T00:21:59.357Z,48.00
2018-06-10T00:22:31.375Z,47.90
2018-06-10T00:23:03.425Z,48.00
2018-06-10T00:23:35.446Z,48.10
2018-06-10T00:24:07.455Z,48.10
2018-06-10T00:24:39.466Z,48.00
2018-06-10T00:25:11.507Z,48.00
2018-06-10T00:25:43.510Z,48.00
2018-06-10T00:26:15.594Z,48.00
2018-06-10T00:26:47.613Z,48.00
2018-06-10T00:27:19.670Z,48.10
2018-06-10T00:27:51.679Z,48.10
2018-06-10T00:28:23.717Z,48.10
2018-06-10T00:28:55.726Z,47.90
2018-06-10T00:29:27.743Z,48.10
2018-06-10T00:29:59.870Z,48.20
2018-06-10T00:30:31.863Z,48.40
2018-06-10T00:31:03.940Z,48.30
2018-06-10T00:32:08.178Z,48.30
2018-06-10T00:32:40.216Z,48.20
2018-06-10T00:33:12.227Z,48.20
2018-06-10T00:33:44.260Z,48.10
2018-06-10T00:34:16.306Z,48.10
2018-06-10T00:34:48.349Z,48.10
2018-06-10T00:35:20.347Z,48.00
2018-06-10T00:35:52.351Z,48.00
2018-06-10T00:36:24.361Z,48.00
2018-06-10T00:36:56.396Z,48.00
2018-06-10T00:37:28.410Z,48.00
2018-06-10T00:38:00.422Z,47.90
2018-06-10T00:38:32.430Z,47.90
2018-06-10T00:39:04.457Z,47.90
2018-06-10T00:39:36.473Z,47.90
2018-06-10T00:40:08.495Z,48.00
2018-06-10T00:40:40.506Z,48.00
2018-06-10T00:41:12.514Z,48.10
2018-06-10T00:41:44.570Z,48.10
2018-06-10T00:42:16.586Z,48.10
2018-06-10T00:42:48.603Z,48.10
2018-06-10T00:43:20.618Z,48.10
2018-06-10T00:43:52.641Z,48.10
2018-06-10T00:44:24.647Z,48.00
2018-06-10T00:44:56.674Z,47.90
2018-06-10T00:45:28.690Z,47.80
2018-06-10T00:46:00.695Z,47.70
2018-06-10T00:46:32.707Z,47.80
2018-06-10T00:47:04.767Z,47.80
2018-06-10T00:47:36.794Z,47.90
2018-06-10T00:48:08.822Z,47.90
2018-06-10T00:48:40.834Z,47.90
2018-06-10T00:49:12.870Z,47.90
2018-06-10T00:49:44.879Z,48.00
2018-06-10T00:50:16.886Z,47.90
2018-06-10T00:50:48.887Z,47.70
2018-06-10T00:51:20.928Z,47.30
2018-06-10T00:51:52.916Z,47.30
2018-06-10T00:52:24.931Z,47.40
2018-06-10T00:52:56.944Z,47.00
2018-06-10T00:53:28.949Z,47.00
2018-06-10T00:54:00.973Z,47.00
2018-06-10T00:54:32.983Z,46.70
2018-06-10T00:55:05.005Z,46.40
2018-06-10T00:55:37.029Z,46.70
2018-06-10T00:56:09.072Z,46.80
2018-06-10T00:56:41.083Z,46.90
2018-06-10T00:57:13.147Z,46.90
2018-06-10T00:57:45.151Z,46.80
2018-06-10T00:58:17.190Z,46.80
2018-06-10T00:58:49.178Z,46.90
2018-06-10T00:59:21.207Z,47.70
2018-06-10T00:59:53.213Z,46.90
2018-06-10T01:00:25.222Z,46.90
2018-06-10T01:00:57.233Z,46.80
2018-06-10T01:01:29.254Z,46.60
2018-06-10T01:02:01.279Z,47.30
2018-06-10T01:02:33.291Z,46.60
2018-06-10T01:03:05.339Z,46.70
2018-06-10T01:03:37.415Z,46.60
2018-06-10T01:04:09.445Z,46.60
2018-06-10T01:04:41.638Z,46.50
2018-06-10T01:05:13.630Z,46.50
2018-06-10T01:05:45.671Z,46.20
2018-06-10T01:06:17.724Z,46.20
2018-06-10T01:06:49.735Z,46.20
2018-06-10T01:07:21.787Z,46.10
2018-06-10T01:07:53.837Z,46.00
2018-06-10T01:08:25.878Z,46.00
2018-06-10T01:08:57.963Z,45.90
2018-06-10T01:09:29.968Z,46.00
2018-06-10T01:10:01.979Z,46.20
2018-06-10T01:10:34.017Z,46.10
2018-06-10T01:11:06.044Z,46.20
2018-06-10T01:11:38.087Z,46.20
2018-06-10T01:12:10.276Z,46.30
2018-06-10T01:12:42.435Z,46.40
2018-06-10T01:13:14.458Z,46.40
2018-06-10T01:13:46.558Z,46.40
2018-06-10T01:14:18.586Z,46.40
2018-06-10T01:14:50.700Z,46.40
2018-06-10T01:15:22.779Z,46.50
2018-06-10T01:15:54.838Z,46.50
2018-06-10T01:16:26.866Z,46.50
2018-06-10T01:16:58.894Z,46.60
2018-06-10T01:17:31.083Z,46.60
2018-06-10T01:18:03.107Z,46.40
2018-06-10T01:18:35.142Z,46.40
2018-06-10T01:19:07.150Z,47.20
2018-06-10T01:19:39.192Z,46.50
2018-06-10T01:20:11.242Z,46.60
2018-06-10T01:20:43.282Z,46.60
2018-06-10T01:21:15.563Z,46.60
2018-06-10T01:21:47.616Z,46.50
2018-06-10T01:22:19.647Z,46.30
2018-06-10T01:22:51.691Z,46.10
2018-06-10T01:23:23.740Z,45.90
2018-06-10T01:23:55.892Z,45.70
2018-06-10T01:24:27.968Z,45.60
2018-06-10T01:25:00.016Z,45.60
2018-06-10T01:25:32.116Z,45.60
2018-06-10T01:26:04.127Z,45.70
2018-06-10T01:26:36.256Z,46.00
2018-06-10T01:27:08.298Z,45.90
2018-06-10T01:27:40.323Z,45.60
2018-06-10T01:28:12.378Z,45.60
2018-06-10T01:28:44.386Z,45.70
2018-06-10T01:29:16.419Z,45.80
2018-06-10T01:29:48.464Z,45.70
2018-06-10T01:30:20.483Z,45.70
2018-06-10T01:30:52.525Z,45.70
2018-06-10T01:31:24.554Z,46.00
2018-06-10T01:31:56.806Z,45.70
2018-06-10T01:32:28.822Z,45.60
2018-06-10T01:33:00.881Z,45.70
2018-06-10T01:33:32.929Z,45.80
2018-06-10T01:34:04.974Z,45.90
2018-06-10T01:34:37.007Z,45.90
2018-06-10T01:35:09.060Z,45.80
2018-06-10T01:35:41.019Z,45.70
2018-06-10T01:36:13.067Z,45.80
2018-06-10T01:36:45.105Z,45.90
2018-06-10T01:37:17.291Z,46.70
2018-06-10T01:37:49.502Z,46.00
2018-06-10T01:38:21.706Z,46.00
2018-06-10T01:38:53.711Z,46.00
2018-06-10T01:39:25.878Z,46.00
2018-06-10T01:39:57.947Z,46.20
2018-06-10T01:40:29.981Z,46.20
2018-06-10T01:41:02.016Z,46.30
2018-06-10T01:41:34.220Z,47.00
2018-06-10T01:42:06.216Z,46.40
2018-06-10T01:42:38.249Z,46.50
2018-06-10T01:43:10.308Z,46.60
2018-06-10T01:43:42.345Z,46.70
2018-06-10T01:44:14.361Z,46.80
2018-06-10T01:44:46.398Z,46.70
2018-06-10T01:45:18.418Z,46.70
2018-06-10T01:45:50.437Z,46.70
2018-06-10T01:46:22.523Z,46.90
2018-06-10T01:46:54.554Z,47.00
2018-06-10T01:47:26.574Z,46.90
2018-06-10T01:47:58.637Z,46.80
2018-06-10T01:48:30.686Z,46.70
2018-06-10T01:49:02.689Z,46.70
2018-06-10T01:49:34.759Z,46.80
2018-06-10T01:50:06.796Z,46.70
2018-06-10T01:50:38.821Z,46.70
2018-06-10T01:51:10.892Z,46.00
2018-06-10T01:51:42.911Z,46.80
2018-06-10T01:52:14.931Z,46.80
2018-06-10T01:52:47.024Z,46.80
2018-06-10T01:53:19.057Z,46.90
2018-06-10T01:53:51.084Z,46.90
2018-06-10T01:54:23.082Z,46.80
2018-06-10T01:54:55.229Z,46.80
2018-06-10T01:55:27.268Z,46.70
2018-06-10T01:55:59.344Z,46.80
2018-06-10T01:56:31.370Z,46.70
2018-06-10T01:57:03.384Z,46.80
2018-06-10T01:57:35.405Z,46.80
2018-06-10T01:58:07.606Z,46.80
2018-06-10T01:58:39.625Z,46.70
2018-06-10T01:59:11.827Z,46.70
2018-06-10T01:59:43.875Z,46.60
2018-06-10T02:00:15.919Z,46.60
2018-06-10T02:00:47.962Z,46.70
2018-06-10T02:01:20.002Z,46.50
2018-06-10T02:01:52.036Z,46.50
2018-06-10T02:02:24.089Z,46.60
2018-06-10T02:02:56.109Z,46.60
2018-06-10T02:03:28.134Z,46.70
2018-06-10T02:04:00.193Z,46.70
2018-06-10T02:04:32.328Z,46.80
2018-06-10T02:05:04.353Z,46.80
2018-06-10T02:05:36.383Z,46.80
2018-06-10T02:06:08.410Z,47.20
2018-06-10T02:06:40.441Z,46.40
2018-06-10T02:07:12.457Z,46.40
2018-06-10T02:07:44.488Z,46.40
2018-06-10T02:08:16.503Z,46.50
2018-06-10T02:08:48.744Z,46.60
2018-06-10T02:09:20.753Z,46.50
2018-06-10T02:09:52.802Z,46.40
2018-06-10T02:10:24.841Z,46.50
2018-06-10T02:10:56.854Z,46.50
2018-06-10T02:11:28.877Z,46.40
2018-06-10T02:12:00.912Z,46.50
2018-06-10T02:13:05.217Z,46.60
2018-06-10T02:13:37.262Z,46.50
2018-06-10T02:14:09.294Z,46.50
2018-06-10T02:14:41.381Z,46.40
2018-06-10T02:15:13.473Z,46.50
2018-06-10T02:15:45.466Z,46.50
2018-06-10T02:16:17.479Z,46.40
2018-06-10T02:16:49.512Z,46.50
2018-06-10T02:17:21.776Z,46.30
2018-06-10T02:17:53.806Z,46.40
2018-06-10T02:18:25.839Z,46.40
2018-06-10T02:18:57.865Z,46.50
2018-06-10T02:19:29.886Z,47.30
2018-06-10T02:20:01.906Z,46.60
2018-06-10T02:20:33.941Z,46.60
2018-06-10T02:21:06.033Z,46.60
2018-06-10T02:21:38.087Z,46.50
2018-06-10T02:22:10.094Z,46.50
2018-06-10T02:22:42.118Z,46.30
2018-06-10T02:23:14.159Z,46.30
2018-06-10T02:23:46.228Z,46.30
2018-06-10T02:24:18.267Z,46.40
2018-06-10T02:24:50.375Z,46.30
2018-06-10T02:25:22.384Z,46.30
2018-06-10T02:25:54.443Z,46.30
2018-06-10T02:26:26.452Z,46.30
2018-06-10T02:26:58.489Z,46.30
2018-06-10T02:27:30.526Z,46.40
2018-06-10T02:28:02.575Z,46.40
2018-06-10T02:28:34.599Z,46.40
2018-06-10T02:29:06.644Z,46.40
2018-06-10T02:29:38.713Z,46.30
2018-06-10T02:30:10.745Z,46.30
2018-06-10T02:30:42.809Z,46.30
2018-06-10T02:31:14.842Z,46.30
2018-06-10T02:31:46.877Z,46.40
2018-06-10T02:32:18.901Z,46.30
2018-06-10T02:32:51.126Z,46.30
2018-06-10T02:33:23.156Z,46.40
2018-06-10T02:33:55.175Z,46.40
2018-06-10T02:34:27.197Z,46.50
2018-06-10T02:34:59.187Z,46.50
2018-06-10T02:35:31.226Z,46.60
2018-06-10T02:36:03.237Z,46.60
2018-06-10T02:36:35.272Z,46.50
2018-06-10T02:37:07.282Z,46.60
2018-06-10T02:37:39.300Z,46.60
2018-06-10T02:38:11.319Z,46.60
2018-06-10T02:38:43.523Z,47.30
2018-06-10T02:39:15.598Z,46.50
2018-06-10T02:39:47.618Z,46.50
2018-06-10T02:40:19.652Z,46.60
2018-06-10T02:40:51.656Z,46.80
2018-06-10T02:41:23.655Z,46.80
2018-06-10T02:41:55.669Z,46.60
2018-06-10T02:42:27.705Z,46.80
2018-06-10T02:42:59.723Z,46.80
2018-06-10T02:43:31.748Z,46.70
2018-06-10T02:44:03.760Z,46.70
2018-06-10T02:44:35.784Z,46.80
2018-06-10T02:45:07.800Z,46.80
2018-06-10T02:45:39.807Z,46.90
2018-06-10T02:46:11.825Z,46.80
2018-06-10T02:46:43.821Z,46.80
2018-06-10T02:47:15.838Z,46.70
2018-06-10T02:47:47.872Z,46.90
2018-06-10T02:48:19.883Z,46.80
2018-06-10T02:48:51.898Z,46.90
2018-06-10T02:49:23.931Z,46.80
2018-06-10T02:49:55.931Z,46.70
2018-06-10T02:50:27.946Z,46.60
2018-06-10T02:50:59.963Z,46.50
2018-06-10T02:51:31.972Z,46.50
2018-06-10T02:52:03.995Z,46.50
2018-06-10T02:52:36.026Z,46.50
2018-06-10T02:53:08.042Z,46.40
2018-06-10T02:53:40.083Z,46.50
2018-06-10T02:54:12.098Z,46.50
2018-06-10T02:54:44.092Z,46.70
2018-06-10T02:55:16.111Z,46.70
2018-06-10T02:55:48.116Z,46.60
2018-06-10T02:56:20.124Z,46.50
2018-06-10T02:56:52.145Z,46.40
2018-06-10T02:57:24.170Z,46.50
2018-06-10T02:57:56.177Z,46.60
2018-06-10T02:58:28.203Z,46.50
2018-06-10T02:59:00.217Z,46.40
2018-06-10T02:59:32.223Z,46.50
2018-06-10T03:00:04.249Z,46.60
2018-06-10T03:01:08.556Z,46.60
2018-06-10T03:01:40.573Z,46.60
2018-06-10T03:02:12.586Z,46.60
2018-06-10T03:02:44.605Z,46.50
2018-06-10T03:03:16.628Z,46.40
2018-06-10T03:03:48.670Z,46.40
2018-06-10T03:04:20.702Z,46.30
2018-06-10T03:04:52.712Z,46.80
2018-06-10T03:05:24.720Z,46.30
2018-06-10T03:05:56.729Z,46.30
2018-06-10T03:06:28.736Z,46.30
2018-06-10T03:07:00.743Z,46.20
2018-06-10T03:07:32.759Z,46.10
2018-06-10T03:08:04.786Z,46.10
2018-06-10T03:08:36.790Z,46.10
2018-06-10T03:09:08.822Z,46.10
2018-06-10T03:09:40.861Z,46.10
2018-06-10T03:10:12.875Z,46.00
2018-06-10T03:10:44.888Z,46.00
2018-06-10T03:11:16.914Z,46.10
2018-06-10T03:11:48.933Z,46.10
2018-06-10T03:12:20.960Z,46.00
2018-06-10T03:12:52.968Z,45.90
2018-06-10T03:13:24.987Z,45.80
2018-06-10T03:13:57.001Z,45.90
2018-06-10T03:14:29.030Z,45.80
2018-06-10T03:15:01.048Z,45.90
2018-06-10T03:15:33.050Z,45.80
2018-06-10T03:16:05.074Z,45.70
2018-06-10T03:16:37.184Z,45.70
2018-06-10T03:17:09.208Z,45.80
2018-06-10T03:17:41.215Z,45.90
2018-06-10T03:18:13.225Z,46.80
2018-06-10T03:18:45.250Z,46.10
2018-06-10T03:19:17.283Z,46.10
2018-06-10T03:19:49.288Z,46.10
2018-06-10T03:20:21.309Z,46.00
2018-06-10T03:20:53.338Z,46.00
2018-06-10T03:21:25.356Z,46.00
2018-06-10T03:21:57.375Z,46.10
2018-06-10T03:22:29.386Z,46.00
2018-06-10T03:23:01.415Z,46.10
2018-06-10T03:23:33.423Z,46.10
2018-06-10T03:24:05.462Z,46.20
2018-06-10T03:24:37.471Z,46.30
2018-06-10T03:25:09.490Z,46.30
2018-06-10T03:25:41.495Z,45.60
2018-06-10T03:26:13.531Z,46.30
2018-06-10T03:26:45.564Z,46.20
2018-06-10T03:27:17.553Z,46.40
2018-06-10T03:27:49.559Z,45.90
2018-06-10T03:28:21.571Z,45.90
2018-06-10T03:28:53.577Z,46.00
2018-06-10T03:29:25.591Z,46.00
2018-06-10T03:29:57.595Z,46.10
2018-06-10T03:30:29.619Z,45.90
2018-06-10T03:31:01.647Z,45.70
2018-06-10T03:31:33.652Z,45.70
2018-06-10T03:32:05.686Z,45.60
2018-06-10T03:32:37.694Z,45.50
2018-06-10T03:33:09.741Z,46.00
2018-06-10T03:33:41.762Z,45.20
2018-06-10T03:34:13.795Z,45.20
2018-06-10T03:34:45.798Z,45.10
2018-06-10T03:35:17.849Z,44.90
2018-06-10T03:35:49.866Z,44.80
2018-06-10T03:36:21.906Z,44.70
2018-06-10T03:37:26.189Z,44.70
2018-06-10T03:37:58.203Z,44.70
2018-06-10T03:38:30.217Z,44.80
2018-06-10T03:39:02.228Z,44.70
2018-06-10T03:39:34.235Z,44.80
2018-06-10T03:40:06.282Z,44.80
2018-06-10T03:40:38.303Z,44.70
2018-06-10T03:41:10.317Z,44.70
2018-06-10T03:41:42.330Z,45.00
2018-06-10T03:42:14.381Z,44.80
2018-06-10T03:42:46.392Z,44.80
2018-06-10T03:43:18.416Z,44.90
2018-06-10T03:43:50.421Z,44.70
2018-06-10T03:44:22.502Z,44.80
2018-06-10T03:44:54.543Z,44.90
2018-06-10T03:45:26.561Z,44.80
2018-06-10T03:45:58.575Z,44.90
2018-06-10T03:46:30.642Z,44.90
2018-06-10T03:47:02.650Z,45.00
2018-06-10T03:47:34.664Z,45.00
2018-06-10T03:48:06.686Z,45.00
2018-06-10T03:48:38.910Z,45.00
2018-06-10T03:49:10.929Z,44.90
2018-06-10T03:49:42.948Z,44.90
2018-06-10T03:50:14.960Z,45.60
2018-06-10T03:50:47.062Z,44.90
2018-06-10T03:51:19.087Z,44.70
2018-06-10T03:51:51.095Z,44.90
2018-06-10T03:52:23.109Z,44.80
2018-06-10T03:52:55.123Z,44.70
2018-06-10T03:53:27.125Z,44.60
2018-06-10T03:53:59.137Z,44.60
2018-06-10T03:54:31.166Z,44.70
2018-06-10T03:55:03.178Z,44.60
2018-06-10T03:55:35.203Z,44.60
2018-06-10T03:56:07.221Z,44.70
2018-06-10T03:56:39.250Z,44.60
2018-06-10T03:57:11.269Z,44.60
2018-06-10T03:57:43.496Z,44.60
2018-06-10T03:58:15.572Z,44.70
2018-06-10T03:58:47.617Z,44.70
2018-06-10T03:59:19.622Z,44.70
2018-06-10T03:59:51.638Z,44.60
2018-06-10T04:00:23.652Z,44.50
2018-06-10T04:00:55.663Z,44.60
2018-06-10T04:01:27.697Z,44.60
2018-06-10T04:01:59.685Z,44.70
2018-06-10T04:02:31.715Z,44.70
2018-06-10T04:03:03.736Z,44.70
2018-06-10T04:03:35.773Z,44.80
2018-06-10T04:04:07.773Z,44.90
2018-06-10T04:04:39.854Z,44.80
2018-06-10T04:05:11.862Z,44.80
2018-06-10T04:05:43.884Z,44.80
2018-06-10T04:06:15.905Z,44.90
2018-06-10T04:06:47.959Z,45.00
2018-06-10T04:07:19.987Z,45.10
2018-06-10T04:07:52.066Z,45.20
2018-06-10T04:08:24.100Z,46.00
2018-06-10T04:08:56.130Z,45.00
2018-06-10T04:09:28.180Z,45.00
2018-06-10T04:10:00.176Z,44.90
2018-06-10T04:10:32.205Z,45.00
2018-06-10T04:11:04.199Z,44.90
2018-06-10T04:11:36.221Z,45.40
2018-06-10T04:12:08.267Z,46.00
2018-06-10T04:12:40.304Z,46.90
2018-06-10T04:13:12.283Z,47.30
2018-06-10T04:13:44.315Z,47.90
2018-06-10T04:14:16.331Z,48.50
2018-06-10T04:14:48.355Z,49.10
2018-06-10T04:15:20.383Z,49.50
2018-06-10T04:15:52.395Z,49.80
2018-06-10T04:16:24.405Z,49.90
2018-06-10T04:16:56.448Z,50.10
2018-06-10T04:17:28.473Z,50.20
2018-06-10T04:18:00.493Z,50.20
2018-06-10T04:18:32.511Z,50.40
2018-06-10T04:19:04.519Z,50.60
2018-06-10T04:19:36.576Z,51.00
2018-06-10T04:20:08.603Z,51.30
2018-06-10T04:20:40.616Z,51.60
2018-06-10T04:21:12.631Z,51.80
2018-06-10T04:21:44.653Z,51.20
2018-06-10T04:22:16.724Z,51.10
2018-06-10T04:22:48.740Z,51.20
2018-06-10T04:23:20.750Z,51.20
2018-06-10T04:23:52.770Z,51.30
2018-06-10T04:24:24.779Z,51.70
2018-06-10T04:24:56.808Z,51.60
2018-06-10T04:25:28.839Z,51.60
2018-06-10T04:26:00.850Z,51.80
2018-06-10T04:26:32.873Z,52.00
2018-06-10T04:27:04.903Z,52.10
2018-06-10T04:27:36.917Z,51.80
2018-06-10T04:28:08.935Z,51.60
2018-06-10T04:28:40.954Z,51.70
2018-06-10T04:29:12.980Z,51.70
2018-06-10T04:29:45.049Z,51.60
2018-06-10T04:30:17.083Z,51.60
2018-06-10T04:30:49.100Z,51.80
2018-06-10T04:31:21.136Z,51.90
2018-06-10T04:31:53.136Z,51.80
2018-06-10T04:32:25.151Z,52.00
2018-06-10T04:32:57.208Z,52.20
2018-06-10T04:33:29.235Z,52.50
2018-06-10T04:34:01.248Z,53.10
2018-06-10T04:34:33.277Z,52.60
2018-06-10T04:35:05.307Z,52.20
2018-06-10T04:35:37.342Z,51.90
2018-06-10T04:36:09.347Z,51.50
2018-06-10T04:36:41.357Z,51.40
2018-06-10T04:37:13.370Z,51.50
2018-06-10T04:37:45.422Z,51.60
2018-06-10T04:38:17.450Z,51.70
2018-06-10T04:38:49.456Z,51.40
2018-06-10T04:39:21.469Z,51.50
2018-06-10T04:39:53.504Z,51.80
2018-06-10T04:40:25.515Z,51.80
2018-06-10T04:40:57.525Z,51.90
2018-06-10T04:41:29.538Z,51.60
2018-06-10T04:42:01.567Z,51.70
2018-06-10T04:42:33.559Z,52.20
2018-06-10T04:43:05.583Z,52.60
2018-06-10T04:43:37.592Z,52.80
2018-06-10T04:44:09.600Z,52.90
2018-06-10T04:44:41.637Z,52.30
2018-06-10T04:45:13.662Z,52.00
2018-06-10T04:45:45.675Z,51.70
2018-06-10T04:46:17.698Z,51.70
2018-06-10T04:46:49.730Z,51.90
2018-06-10T04:47:54.050Z,51.70
2018-06-10T04:48:26.082Z,51.50
2018-06-10T04:48:58.097Z,51.60
2018-06-10T04:49:30.114Z,51.80
2018-06-10T04:50:02.167Z,52.60
2018-06-10T04:50:34.185Z,51.90
2018-06-10T04:51:06.199Z,51.90
2018-06-10T04:51:38.214Z,52.20
2018-06-10T04:52:10.231Z,52.10
2018-06-10T04:52:42.243Z,51.90
2018-06-10T04:53:14.271Z,51.80
2018-06-10T04:53:46.284Z,51.80
2018-06-10T04:54:18.302Z,51.80
2018-06-10T04:54:50.308Z,51.60
2018-06-10T04:55:22.345Z,51.40
2018-06-10T04:55:54.358Z,51.20
2018-06-10T04:56:26.363Z,51.10
2018-06-10T04:57:30.660Z,51.50
2018-06-10T04:58:02.679Z,51.10
2018-06-10T04:58:34.703Z,51.50
2018-06-10T04:59:06.726Z,50.70
2018-06-10T04:59:38.745Z,50.70
2018-06-10T05:00:10.911Z,50.90
2018-06-10T05:00:42.895Z,50.60
2018-06-10T05:01:14.910Z,50.60
2018-06-10T05:01:46.913Z,50.80
2018-06-10T05:02:18.936Z,50.70
2018-06-10T05:03:23.214Z,51.30
2018-06-10T05:03:55.253Z,50.40
2018-06-10T05:04:27.254Z,50.40
2018-06-10T05:04:59.298Z,50.50
2018-06-10T05:05:31.324Z,50.80
2018-06-10T05:06:03.327Z,50.80
2018-06-10T05:06:35.341Z,50.80
2018-06-10T05:07:07.376Z,50.70
2018-06-10T05:07:39.396Z,50.70
2018-06-10T05:08:11.416Z,50.40
2018-06-10T05:08:43.437Z,50.80
2018-06-10T05:09:15.445Z,50.80
2018-06-10T05:09:47.472Z,50.80
2018-06-10T05:10:19.503Z,50.60
2018-06-10T05:10:51.524Z,50.40
2018-06-10T05:11:23.545Z,50.50
2018-06-10T05:11:55.577Z,50.40
2018-06-10T05:12:27.573Z,50.50
2018-06-10T05:12:59.609Z,50.70
2018-06-10T05:13:31.610Z,50.70
2018-06-10T05:14:03.662Z,50.70
2018-06-10T05:14:35.665Z,50.60
2018-06-10T05:15:07.687Z,50.40
2018-06-10T05:15:39.706Z,50.40
2018-06-10T05:16:11.731Z,50.50
2018-06-10T05:16:43.736Z,50.70
2018-06-10T05:17:15.755Z,50.70
2018-06-10T05:17:47.763Z,50.60
2018-06-10T05:18:19.780Z,50.80
2018-06-10T05:18:51.808Z,50.90
2018-06-10T05:19:23.830Z,50.90
2018-06-10T05:19:55.917Z,51.00
2018-06-10T05:20:27.906Z,51.10
2018-06-10T05:20:59.912Z,51.50
2018-06-10T05:21:31.922Z,51.60
2018-06-10T05:22:03.926Z,50.80
2018-06-10T05:22:35.994Z,50.90
2018-06-10T05:23:07.985Z,50.70
2018-06-10T05:23:40.027Z,50.90
2018-06-10T05:24:12.028Z,51.00
2018-06-10T05:24:44.058Z,50.90
2018-06-10T05:25:17.710Z,50.60
2018-06-10T05:25:50.968Z,50.00
2018-06-10T05:26:22.979Z,49.50
2018-06-10T05:26:55.006Z,49.10
2018-06-10T05:27:27.019Z,48.80
2018-06-10T05:27:59.051Z,48.50
2018-06-10T05:28:31.066Z,48.40
2018-06-10T05:29:03.087Z,48.20
2018-06-10T05:29:35.097Z,47.90
2018-06-10T05:30:07.129Z,47.70
2018-06-10T05:30:39.151Z,47.60
2018-06-10T05:31:11.158Z,47.40
2018-06-10T05:31:43.173Z,47.30
2018-06-10T05:32:15.270Z,47.30
2018-06-10T05:32:47.432Z,47.00
2018-06-10T05:33:19.432Z,46.80
2018-06-10T05:33:51.452Z,46.60
2018-06-10T05:34:23.469Z,46.40
2018-06-10T05:34:55.483Z,45.90
2018-06-10T05:35:27.503Z,45.80
2018-06-10T05:35:59.521Z,45.70
2018-06-10T05:36:31.534Z,45.70
2018-06-10T05:37:03.545Z,45.80
2018-06-10T05:37:35.563Z,45.90
2018-06-10T05:38:07.593Z,45.80
2018-06-10T05:38:39.610Z,45.90
2018-06-10T05:39:11.746Z,45.70
2018-06-10T05:39:43.733Z,45.70
2018-06-10T05:40:15.740Z,45.50
2018-06-10T05:40:47.767Z,45.40
2018-06-10T05:41:19.781Z,45.50
2018-06-10T05:41:51.810Z,45.50
2018-06-10T05:42:23.823Z,45.60
2018-06-10T05:42:55.838Z,45.80
2018-06-10T05:43:27.857Z,45.90
2018-06-10T05:43:59.889Z,45.80
2018-06-10T05:44:31.910Z,45.70
2018-06-10T05:45:03.921Z,45.70
2018-06-10T05:45:35.977Z,45.60
2018-06-10T05:46:07.998Z,45.40
2018-06-10T05:46:40.029Z,45.20
2018-06-10T05:47:12.057Z,45.10
2018-06-10T05:47:44.057Z,45.30
2018-06-10T05:48:16.084Z,45.20
2018-06-10T05:48:48.092Z,45.10
2018-06-10T05:49:20.109Z,45.10
2018-06-10T05:49:52.132Z,45.30
2018-06-10T05:50:24.159Z,45.40
2018-06-10T05:50:56.171Z,45.50
2018-06-10T05:52:00.465Z,45.60
2018-06-10T05:52:32.520Z,45.70
2018-06-10T05:53:04.511Z,45.80
2018-06-10T05:53:36.527Z,45.90
2018-06-10T05:54:08.571Z,46.10
2018-06-10T05:54:40.581Z,46.00
2018-06-10T05:55:12.592Z,45.70
2018-06-10T05:55:44.665Z,45.50
2018-06-10T05:56:16.682Z,45.20
2018-06-10T05:56:48.700Z,45.10
2018-06-10T05:57:20.707Z,45.10
2018-06-10T05:57:52.716Z,45.00
2018-06-10T05:58:24.787Z,45.00
2018-06-10T05:58:56.767Z,44.90
2018-06-10T05:59:28.777Z,45.00
2018-06-10T06:00:00.794Z,45.10
2018-06-10T06:00:32.870Z,45.10
2018-06-10T06:01:04.851Z,45.20
2018-06-10T06:01:36.898Z,45.00
2018-06-10T06:02:08.918Z,45.10
2018-06-10T06:02:40.941Z,45.20
2018-06-10T06:03:12.943Z,45.10
2018-06-10T06:03:44.991Z,45.10
2018-06-10T06:04:16.998Z,45.20
2018-06-10T06:04:49.502Z,45.20
2018-06-10T06:05:21.899Z,45.20
2018-06-10T06:05:53.942Z,45.20
2018-06-10T06:06:25.946Z,44.70
2018-06-10T06:06:57.969Z,44.80
2018-06-10T06:07:30.011Z,44.70
2018-06-10T06:08:02.007Z,44.70
2018-06-10T06:08:34.014Z,44.80
2018-06-10T06:09:06.076Z,44.90
2018-06-10T06:09:38.115Z,45.00
2018-06-10T06:10:10.127Z,44.90
2018-06-10T06:10:42.135Z,44.90
2018-06-10T06:11:14.177Z,45.00
2018-06-10T06:11:46.213Z,45.00
2018-06-10T06:12:18.215Z,45.00
2018-06-10T06:12:50.234Z,44.90
2018-06-10T06:13:22.271Z,44.50
2018-06-10T06:13:54.261Z,44.40
2018-06-10T06:14:26.266Z,44.30
2018-06-10T06:14:58.307Z,44.30
2018-06-10T06:15:30.326Z,44.20
2018-06-10T06:16:02.367Z,44.20
2018-06-10T06:16:34.376Z,44.10
2018-06-10T06:17:06.394Z,44.10
2018-06-10T06:18:10.736Z,44.70
2018-06-10T06:18:42.771Z,43.90
2018-06-10T06:19:14.798Z,43.90
2018-06-10T06:19:46.840Z,43.80
2018-06-10T06:20:18.891Z,43.90
2018-06-10T06:20:50.898Z,44.00
2018-06-10T06:21:22.931Z,44.00
2018-06-10T06:21:54.946Z,44.00
2018-06-10T06:22:26.952Z,44.00
2018-06-10T06:22:58.977Z,44.00
2018-06-10T06:23:30.983Z,43.90
2018-06-10T06:24:03.011Z,43.80
2018-06-10T06:24:35.028Z,43.90
2018-06-10T06:25:07.059Z,43.90
2018-06-10T06:25:39.071Z,44.00
2018-06-10T06:26:11.077Z,44.10
2018-06-10T06:26:43.108Z,44.10
2018-06-10T06:27:15.151Z,44.10
2018-06-10T06:27:47.150Z,44.00
2018-06-10T06:28:19.178Z,44.00
2018-06-10T06:28:51.185Z,44.10
2018-06-10T06:29:23.203Z,44.00
2018-06-10T06:29:55.258Z,44.10
2018-06-10T06:30:27.282Z,44.10
2018-06-10T06:30:59.318Z,44.20
2018-06-10T06:31:31.307Z,44.30
2018-06-10T06:32:03.322Z,44.40
2018-06-10T06:32:35.349Z,44.30
2018-06-10T06:33:07.361Z,44.10
2018-06-10T06:33:39.474Z,44.00
2018-06-10T06:34:11.446Z,43.90
2018-06-10T06:34:43.448Z,43.70
2018-06-10T06:35:15.469Z,43.80
2018-06-10T06:35:47.508Z,43.80
2018-06-10T06:36:19.516Z,43.80
2018-06-10T06:36:51.518Z,43.90
2018-06-10T06:37:23.530Z,43.90
2018-06-10T06:37:55.555Z,44.10
2018-06-10T06:38:27.624Z,44.20
2018-06-10T06:38:59.628Z,44.10
2018-06-10T06:39:31.653Z,44.20
2018-06-10T06:40:03.658Z,44.40
2018-06-10T06:40:35.709Z,44.30
2018-06-10T06:41:07.711Z,44.30
2018-06-10T06:41:39.726Z,44.30
2018-06-10T06:42:11.763Z,44.20
2018-06-10T06:42:43.794Z,44.30
2018-06-10T06:43:15.802Z,44.30
2018-06-10T06:43:47.810Z,44.20
2018-06-10T06:44:19.823Z,44.20
2018-06-10T06:44:51.842Z,44.10
2018-06-10T06:45:23.849Z,44.10
2018-06-10T06:45:55.899Z,44.10
2018-06-10T06:46:27.917Z,44.10
2018-06-10T06:46:59.947Z,44.00
2018-06-10T06:47:31.939Z,43.90
2018-06-10T06:48:04.011Z,43.90
2018-06-10T06:48:36.067Z,43.90
2018-06-10T06:49:08.105Z,43.90
2018-06-10T06:49:40.140Z,43.90
2018-06-10T06:50:12.262Z,43.90
2018-06-10T06:50:44.294Z,43.90
2018-06-10T06:51:16.310Z,43.80
2018-06-10T06:51:48.312Z,43.80
2018-06-10T06:52:20.318Z,43.50
2018-06-10T06:52:52.346Z,43.80
2018-06-10T06:53:24.375Z,43.70
2018-06-10T06:53:56.382Z,43.80
2018-06-10T06:54:28.407Z,43.80
2018-06-10T06:55:00.460Z,43.80
2018-06-10T06:55:32.457Z,43.70
2018-06-10T06:56:04.466Z,43.70
2018-06-10T06:56:36.498Z,44.50
2018-06-10T06:57:08.560Z,43.80